Time;durP1;ratioP1;P1;durP2;ratioP2;P2;SDS_P1;SDS_P2;PMS_P1;PMS_P2;Temp;Humidity;BMP_temperature;BMP_pressure;BME280_temperature;BME280_humidity;BME280_pressure;Samples;Min_cycle;Max_cycle;Signal;HPM_P1;HPM_P2
2020/12/27 00:01:56;;;;;;;;;;;19.90;39.80;;;;;;491800;240;1079;-53
2020/12/27 00:03:57;;;;;;;;;;;19.90;41.20;;;;;;491882;240;1191;-53
2020/12/27 00:05:59;;;;;;;;;;;19.80;41.30;;;;;;491687;240;1069;-53
2020/12/27 00:08:00;;;;;;;;;;;19.80;41.40;;;;;;491630;240;1337;-53
2020/12/27 00:10:01;;;;;;;;;;;19.70;41.50;;;;;;491546;240;1091;-53
2020/12/27 00:12:02;;;;;;;;;;;19.70;41.70;;;;;;491651;240;2199;-53
2020/12/27 00:14:04;;;;;;;;;;;19.60;41.70;;;;;;491662;240;1083;-53
2020/12/27 00:16:05;;;;;;;;;;;19.60;41.70;;;;;;491760;240;1058;-53
2020/12/27 00:18:06;;;;;;;;;;;19.50;41.80;;;;;;492063;240;1321;-53
2020/12/27 00:20:08;;;;;;;;;;;19.40;41.80;;;;;;491632;240;1212;-53
2020/12/27 00:22:09;;;;;;;;;;;19.40;42.00;;;;;;491729;240;1036;-53
2020/12/27 00:24:10;;;;;;;;;;;19.40;42.00;;;;;;491874;240;1079;-53
2020/12/27 00:26:11;;;;;;;;;;;19.40;42.10;;;;;;491576;240;1170;-53
2020/12/27 00:28:13;;;;;;;;;;;19.30;42.10;;;;;;491695;240;1044;-53
2020/12/27 00:30:14;;;;;;;;;;;19.30;42.20;;;;;;491536;240;1190;-53
2020/12/27 00:32:15;;;;;;;;;;;19.20;42.20;;;;;;491704;240;2133;-53
2020/12/27 00:34:17;;;;;;;;;;;19.20;42.30;;;;;;491857;240;1249;-53
2020/12/27 00:36:18;;;;;;;;;;;19.10;42.40;;;;;;491676;240;1128;-53
2020/12/27 00:38:19;;;;;;;;;;;19.10;42.40;;;;;;491799;240;1067;-53
2020/12/27 00:40:20;;;;;;;;;;;19.10;42.50;;;;;;491675;240;1070;-53
2020/12/27 00:42:22;;;;;;;;;;;19.10;42.50;;;;;;491668;240;1102;-53
2020/12/27 00:44:23;;;;;;;;;;;19.00;42.50;;;;;;491780;240;987;-53
2020/12/27 00:46:24;;;;;;;;;;;19.00;42.60;;;;;;491756;240;971;-53
2020/12/27 00:48:25;;;;;;;;;;;19.00;42.70;;;;;;491820;240;1195;-53
2020/12/27 00:50:27;;;;;;;;;;;19.00;42.70;;;;;;491769;240;1019;-53
2020/12/27 00:52:28;;;;;;;;;;;18.90;42.70;;;;;;491719;240;2136;-53
2020/12/27 00:54:29;;;;;;;;;;;18.90;42.80;;;;;;491738;240;1066;-53
2020/12/27 00:56:31;;;;;;;;;;;18.90;42.80;;;;;;491615;240;1031;-53
2020/12/27 00:58:32;;;;;;;;;;;18.90;42.80;;;;;;491770;240;1158;-52
2020/12/27 01:00:33;;;;;;;;;;;18.80;42.90;;;;;;491696;240;987;-53
2020/12/27 01:02:34;;;;;;;;;;;18.80;42.90;;;;;;491765;240;1078;-53
2020/12/27 01:04:36;;;;;;;;;;;18.80;42.90;;;;;;491617;240;1583;-53
2020/12/27 01:06:38;;;;;;;;;;;18.80;42.90;;;;;;491625;240;1045;-53
2020/12/27 01:08:39;;;;;;;;;;;18.80;43.00;;;;;;492023;240;1058;-52
2020/12/27 01:10:40;;;;;;;;;;;18.70;43.00;;;;;;491657;240;1086;-53
2020/12/27 01:12:41;;;;;;;;;;;18.70;43.00;;;;;;491863;240;2192;-53
2020/12/27 01:14:42;;;;;;;;;;;18.70;41.70;;;;;;491809;240;1206;-53
2020/12/27 01:16:44;;;;;;;;;;;18.70;43.10;;;;;;491860;240;1042;-53
2020/12/27 01:18:45;;;;;;;;;;;18.70;43.10;;;;;;491690;240;1211;-53
2020/12/27 01:20:46;;;;;;;;;;;18.70;43.10;;;;;;491622;240;1353;-53
2020/12/27 01:22:48;;;;;;;;;;;18.60;43.10;;;;;;491700;240;1262;-53
2020/12/27 01:24:49;;;;;;;;;;;18.60;43.10;;;;;;492133;240;1284;-53
2020/12/27 01:26:50;;;;;;;;;;;18.60;43.20;;;;;;491633;240;1106;-52
2020/12/27 01:28:51;;;;;;;;;;;18.60;43.20;;;;;;491620;240;1174;-53
2020/12/27 01:30:53;;;;;;;;;;;18.60;43.20;;;;;;491554;240;1209;-52
2020/12/27 01:32:54;;;;;;;;;;;18.50;43.20;;;;;;491805;240;2141;-53
2020/12/27 01:34:55;;;;;;;;;;;18.50;43.20;;;;;;491639;240;1326;-53
2020/12/27 01:36:57;;;;;;;;;;;18.50;43.20;;;;;;491576;240;1187;-53
2020/12/27 01:38:58;;;;;;;;;;;18.50;43.30;;;;;;491630;240;1067;-53
2020/12/27 01:40:59;;;;;;;;;;;18.50;43.30;;;;;;491627;240;1073;-53
2020/12/27 01:43:00;;;;;;;;;;;18.50;43.30;;;;;;491690;240;1107;-52
2020/12/27 01:45:02;;;;;;;;;;;18.50;43.30;;;;;;491912;240;1019;-53
2020/12/27 01:47:03;;;;;;;;;;;18.40;43.30;;;;;;491523;240;1147;-53
2020/12/27 01:49:04;;;;;;;;;;;18.40;43.30;;;;;;491979;240;2179;-53
2020/12/27 01:51:06;;;;;;;;;;;18.40;43.30;;;;;;491739;240;1296;-53
2020/12/27 01:53:07;;;;;;;;;;;18.40;43.40;;;;;;491666;240;2149;-53
2020/12/27 01:55:08;;;;;;;;;;;18.40;43.40;;;;;;491613;240;994;-52
2020/12/27 01:57:09;;;;;;;;;;;18.40;43.40;;;;;;491594;240;1249;-53
2020/12/27 01:59:11;;;;;;;;;;;18.40;43.40;;;;;;491763;240;1137;-53
2020/12/27 02:01:12;;;;;;;;;;;18.30;42.10;;;;;;491549;240;1204;-53
2020/12/27 02:03:13;;;;;;;;;;;18.30;43.40;;;;;;491543;240;1178;-52
2020/12/27 02:05:14;;;;;;;;;;;18.30;43.30;;;;;;491871;240;1139;-53
2020/12/27 02:07:16;;;;;;;;;;;18.30;43.40;;;;;;491723;240;1194;-52
2020/12/27 02:09:17;;;;;;;;;;;18.30;43.40;;;;;;491620;240;1232;-53
2020/12/27 02:11:18;;;;;;;;;;;18.30;43.40;;;;;;491669;240;1545;-53
2020/12/27 02:13:20;;;;;;;;;;;18.30;43.40;;;;;;491603;240;2204;-53
2020/12/27 02:15:21;;;;;;;;;;;18.30;43.40;;;;;;491621;240;1142;-53
2020/12/27 02:17:22;;;;;;;;;;;18.20;43.40;;;;;;491775;240;1213;-53
2020/12/27 02:19:23;;;;;;;;;;;18.20;43.40;;;;;;491698;240;1048;-52
2020/12/27 02:21:25;;;;;;;;;;;18.20;43.40;;;;;;491476;240;1184;-53
2020/12/27 02:23:26;;;;;;;;;;;18.20;43.40;;;;;;491453;240;1224;-53
2020/12/27 02:25:27;;;;;;;;;;;18.20;43.40;;;;;;491554;240;1212;-52
2020/12/27 02:27:28;;;;;;;;;;;18.20;43.40;;;;;;491580;240;1221;-53
2020/12/27 02:29:30;;;;;;;;;;;18.20;43.30;;;;;;491770;240;1075;-53
2020/12/27 02:31:31;;;;;;;;;;;18.20;43.20;;;;;;491612;240;1040;-53
2020/12/27 02:33:32;;;;;;;;;;;18.30;43.20;;;;;;491682;240;2190;-53
2020/12/27 02:35:34;;;;;;;;;;;18.30;43.10;;;;;;491593;239;1338;-53
2020/12/27 02:37:35;;;;;;;;;;;18.30;43.00;;;;;;491953;240;1020;-53
2020/12/27 02:39:36;;;;;;;;;;;18.30;41.60;;;;;;491644;240;1213;-53
2020/12/27 02:41:37;;;;;;;;;;;18.40;42.90;;;;;;491800;240;1061;-53
2020/12/27 02:43:39;;;;;;;;;;;18.40;42.90;;;;;;491780;240;1093;-53
2020/12/27 02:45:40;;;;;;;;;;;18.40;42.80;;;;;;491977;240;994;-53
2020/12/27 02:47:41;;;;;;;;;;;18.50;42.70;;;;;;491643;240;1157;-53
2020/12/27 02:49:42;;;;;;;;;;;18.50;42.70;;;;;;491626;240;1073;-53
2020/12/27 02:51:44;;;;;;;;;;;18.50;42.70;;;;;;491667;240;1403;-53
2020/12/27 02:53:48;;;;;;;;;;;18.50;42.60;;;;;;492015;240;2137;-53
2020/12/27 02:55:47;;;;;;;;;;;18.50;42.60;;;;;;491668;240;2217;-53
2020/12/27 02:57:48;;;;;;;;;;;18.50;42.50;;;;;;491599;240;1188;-53
2020/12/27 02:59:50;;;;;;;;;;;18.60;42.50;;;;;;491633;240;966;-53
2020/12/27 03:01:51;;;;;;;;;;;18.60;42.40;;;;;;491537;240;1213;-53
2020/12/27 03:03:52;;;;;;;;;;;18.70;42.40;;;;;;491602;240;955;-53
2020/12/27 03:05:53;;;;;;;;;;;18.60;42.40;;;;;;491633;240;1301;-53
2020/12/27 03:07:55;;;;;;;;;;;18.70;42.30;;;;;;491627;240;1030;-53
2020/12/27 03:09:56;;;;;;;;;;;18.60;42.20;;;;;;491785;240;1043;-53
2020/12/27 03:11:57;;;;;;;;;;;18.70;40.90;;;;;;491702;240;1279;-53
2020/12/27 03:13:58;;;;;;;;;;;18.70;42.20;;;;;;491886;240;2175;-53
2020/12/27 03:16:00;;;;;;;;;;;18.70;42.10;;;;;;491975;240;1126;-52
2020/12/27 03:18:01;;;;;;;;;;;18.70;42.10;;;;;;491652;240;1044;-53
2020/12/27 03:20:02;;;;;;;;;;;18.80;42.10;;;;;;491608;240;976;-53
2020/12/27 03:22:04;;;;;;;;;;;18.80;42.00;;;;;;491588;240;1177;-53
2020/12/27 03:24:05;;;;;;;;;;;18.80;42.00;;;;;;491732;240;1026;-53
2020/12/27 03:26:06;;;;;;;;;;;18.80;42.00;;;;;;491568;240;1111;-53
2020/12/27 03:28:07;;;;;;;;;;;18.80;42.00;;;;;;491710;240;1043;-53
2020/12/27 03:30:09;;;;;;;;;;;18.90;41.90;;;;;;491648;240;1131;-53
2020/12/27 03:32:10;;;;;;;;;;;18.90;41.90;;;;;;491658;240;1029;-53
2020/12/27 03:34:12;;;;;;;;;;;18.90;41.90;;;;;;491554;240;2204;-53
2020/12/27 03:36:13;;;;;;;;;;;18.90;41.80;;;;;;491893;240;1900;-54
2020/12/27 03:38:14;;;;;;;;;;;18.90;41.80;;;;;;491593;240;1059;-53
2020/12/27 03:40:15;;;;;;;;;;;18.90;41.70;;;;;;491627;239;1430;-53
2020/12/27 03:42:17;;;;;;;;;;;18.90;41.70;;;;;;491590;240;968;-53
2020/12/27 03:44:18;;;;;;;;;;;19.00;41.80;;;;;;491735;240;937;-53
2020/12/27 03:46:19;;;;;;;;;;;19.00;41.70;;;;;;491550;240;1039;-53
2020/12/27 03:48:21;;;;;;;;;;;19.00;41.70;;;;;;491675;240;1027;-53
2020/12/27 03:50:22;;;;;;;;;;;19.00;41.60;;;;;;491621;240;1008;-53
2020/12/27 03:52:23;;;;;;;;;;;19.00;41.60;;;;;;491647;240;1184;-53
2020/12/27 03:54:25;;;;;;;;;;;19.00;41.60;;;;;;491625;240;2109;-53
2020/12/27 03:56:26;;;;;;;;;;;19.00;41.60;;;;;;491767;240;1202;-53
2020/12/27 03:58:27;;;;;;;;;;;19.10;41.60;;;;;;491636;240;1210;-53
2020/12/27 04:00:30;;;;;;;;;;;19.10;41.50;;;;;;491671;240;999;-53
2020/12/27 04:02:30;;;;;;;;;;;19.10;41.50;;;;;;491664;240;1701;-53
2020/12/27 04:04:32;;;;;;;;;;;19.10;41.50;;;;;;491698;240;1344;-53
2020/12/27 04:06:33;;;;;;;;;;;19.10;41.50;;;;;;491767;240;1318;-54
2020/12/27 04:08:34;;;;;;;;;;;19.10;41.50;;;;;;491605;240;1134;-53
2020/12/27 04:10:36;;;;;;;;;;;19.10;41.40;;;;;;491638;240;1064;-54
2020/12/27 04:12:37;;;;;;;;;;;19.10;41.40;;;;;;491619;240;1409;-53
2020/12/27 04:14:38;;;;;;;;;;;19.10;41.30;;;;;;491775;240;2113;-53
2020/12/27 04:16:39;;;;;;;;;;;19.20;41.40;;;;;;491964;240;1373;-53
2020/12/27 04:18:41;;;;;;;;;;;19.20;41.30;;;;;;491624;240;1053;-54
2020/12/27 04:20:42;;;;;;;;;;;19.20;41.30;;;;;;491685;240;1190;-53
2020/12/27 04:22:43;;;;;;;;;;;19.20;40.00;;;;;;491703;240;1115;-54
2020/12/27 04:24:45;;;;;;;;;;;19.20;41.30;;;;;;491682;240;1175;-52
2020/12/27 04:26:46;;;;;;;;;;;19.20;41.30;;;;;;491652;240;1242;-53
2020/12/27 04:28:47;;;;;;;;;;;19.20;41.20;;;;;;491733;240;1514;-53
2020/12/27 04:30:49;;;;;;;;;;;19.30;41.20;;;;;;491634;240;1652;-53
2020/12/27 04:32:50;;;;;;;;;;;19.30;41.20;;;;;;491767;240;2137;-53
2020/12/27 04:34:51;;;;;;;;;;;19.30;41.20;;;;;;491780;240;970;-53
2020/12/27 04:36:53;;;;;;;;;;;19.30;41.20;;;;;;491623;240;1165;-53
2020/12/27 04:38:54;;;;;;;;;;;19.30;41.20;;;;;;491663;240;1092;-53
2020/12/27 04:40:55;;;;;;;;;;;19.30;41.10;;;;;;491759;240;1233;-53
2020/12/27 04:42:56;;;;;;;;;;;19.30;41.20;;;;;;491587;240;1717;-53
2020/12/27 04:44:58;;;;;;;;;;;19.30;41.10;;;;;;491703;240;1188;-53
2020/12/27 04:46:59;;;;;;;;;;;19.30;41.00;;;;;;491783;240;1250;-53
2020/12/27 04:49:00;;;;;;;;;;;19.30;41.00;;;;;;491734;240;1158;-53
2020/12/27 04:51:02;;;;;;;;;;;19.30;41.00;;;;;;491608;240;978;-52
2020/12/27 04:53:03;;;;;;;;;;;19.30;41.10;;;;;;491663;240;2153;-53
2020/12/27 04:55:04;;;;;;;;;;;19.30;41.00;;;;;;491882;240;1044;-53
2020/12/27 04:57:05;;;;;;;;;;;19.40;41.10;;;;;;491624;240;1073;-53
2020/12/27 04:59:07;;;;;;;;;;;19.30;40.90;;;;;;491665;240;1105;-53
2020/12/27 05:01:09;;;;;;;;;;;19.40;41.00;;;;;;491589;240;1153;-52
2020/12/27 05:03:09;;;;;;;;;;;19.40;41.00;;;;;;491568;242;1937;-53
2020/12/27 05:05:14;;;;;;;;;;;19.40;41.00;;;;;;491823;240;1119;-53
2020/12/27 05:07:14;;;;;;;;;;;19.40;40.90;;;;;;491584;241;2281;-53
2020/12/27 05:09:15;;;;;;;;;;;19.40;40.90;;;;;;491729;240;1078;-53
2020/12/27 05:11:16;;;;;;;;;;;19.40;41.00;;;;;;491630;240;1124;-53
2020/12/27 05:13:18;;;;;;;;;;;19.40;40.90;;;;;;491572;240;2140;-53
2020/12/27 05:15:19;;;;;;;;;;;19.40;40.90;;;;;;491589;240;1398;-53
2020/12/27 05:17:20;;;;;;;;;;;19.40;40.90;;;;;;491646;240;1050;-53
2020/12/27 05:19:21;;;;;;;;;;;19.50;40.90;;;;;;491764;240;1061;-53
2020/12/27 05:21:23;;;;;;;;;;;19.50;40.90;;;;;;491665;240;1048;-53
2020/12/27 05:23:24;;;;;;;;;;;19.50;40.90;;;;;;491687;240;2363;-53
2020/12/27 05:25:25;;;;;;;;;;;19.50;40.90;;;;;;491725;240;992;-53
2020/12/27 05:27:27;;;;;;;;;;;19.50;40.80;;;;;;491609;240;956;-53
2020/12/27 05:29:28;;;;;;;;;;;19.50;40.90;;;;;;491646;240;967;-53
2020/12/27 05:31:29;;;;;;;;;;;19.40;40.80;;;;;;491552;240;1106;-53
2020/12/27 05:33:30;;;;;;;;;;;19.50;40.80;;;;;;491624;240;2192;-53
2020/12/27 05:35:32;;;;;;;;;;;19.50;40.80;;;;;;491709;240;1039;-53
2020/12/27 05:37:33;;;;;;;;;;;19.50;40.80;;;;;;491674;239;1273;-53
2020/12/27 05:39:34;;;;;;;;;;;19.50;40.80;;;;;;491703;240;1063;-53
2020/12/27 05:41:36;;;;;;;;;;;19.50;40.80;;;;;;491584;240;1211;-53
2020/12/27 05:43:37;;;;;;;;;;;19.50;40.80;;;;;;491692;240;955;-53
2020/12/27 05:45:38;;;;;;;;;;;19.50;40.70;;;;;;491664;240;1224;-53
2020/12/27 05:47:40;;;;;;;;;;;19.50;40.70;;;;;;491559;240;1176;-53
2020/12/27 05:49:41;;;;;;;;;;;19.60;40.70;;;;;;491789;240;1024;-53
2020/12/27 05:51:42;;;;;;;;;;;19.50;40.70;;;;;;491661;240;1280;-53
2020/12/27 05:53:43;;;;;;;;;;;19.60;40.80;;;;;;491647;240;2188;-53
2020/12/27 05:55:45;;;;;;;;;;;19.60;40.70;;;;;;491714;240;1060;-53
2020/12/27 05:57:46;;;;;;;;;;;19.60;40.80;;;;;;491683;240;1226;-53
2020/12/27 05:59:47;;;;;;;;;;;19.50;40.60;;;;;;491854;240;1029;-53
2020/12/27 06:01:48;;;;;;;;;;;19.60;40.70;;;;;;491594;240;1082;-53
2020/12/27 06:03:50;;;;;;;;;;;19.60;40.70;;;;;;491646;240;1202;-53
2020/12/27 06:05:51;;;;;;;;;;;19.60;40.70;;;;;;491777;240;1032;-53
2020/12/27 06:07:52;;;;;;;;;;;19.60;40.60;;;;;;491774;240;1634;-53
2020/12/27 06:09:54;;;;;;;;;;;19.60;40.70;;;;;;491778;240;1099;-52
2020/12/27 06:11:55;;;;;;;;;;;19.60;40.70;;;;;;491599;240;1010;-53
2020/12/27 06:13:56;;;;;;;;;;;19.60;40.60;;;;;;491519;240;2179;-53
2020/12/27 06:15:58;;;;;;;;;;;19.60;40.60;;;;;;491459;240;1199;-53
2020/12/27 06:17:59;;;;;;;;;;;19.60;40.60;;;;;;491510;240;1075;-53
2020/12/27 06:20:01;;;;;;;;;;;19.60;40.60;;;;;;491512;240;1034;-53
2020/12/27 06:22:02;;;;;;;;;;;19.60;40.60;;;;;;491498;240;2218;-53
2020/12/27 06:24:03;;;;;;;;;;;19.60;40.60;;;;;;491650;240;1845;-53
2020/12/27 06:26:04;;;;;;;;;;;19.60;40.50;;;;;;491640;240;1074;-53
2020/12/27 06:28:05;;;;;;;;;;;19.60;40.50;;;;;;491530;240;1115;-54
2020/12/27 06:30:07;;;;;;;;;;;19.60;40.50;;;;;;491635;240;1044;-53
2020/12/27 06:32:08;;;;;;;;;;;19.60;40.60;;;;;;491573;240;1064;-53
2020/12/27 06:34:09;;;;;;;;;;;19.60;40.50;;;;;;491613;240;2187;-53
2020/12/27 06:36:10;;;;;;;;;;;19.70;40.60;;;;;;491642;240;1094;-53
2020/12/27 06:38:12;;;;;;;;;;;19.70;40.60;;;;;;491690;240;1144;-53
2020/12/27 06:40:13;;;;;;;;;;;19.70;40.50;;;;;;491593;240;1085;-53
2020/12/27 06:42:14;;;;;;;;;;;19.70;40.50;;;;;;491571;240;1074;-53
2020/12/27 06:44:16;;;;;;;;;;;19.70;40.50;;;;;;491629;240;1049;-53
2020/12/27 06:46:17;;;;;;;;;;;19.70;40.60;;;;;;491701;240;1053;-53
2020/12/27 06:48:18;;;;;;;;;;;19.70;40.40;;;;;;491576;240;1044;-53
2020/12/27 06:50:19;;;;;;;;;;;19.70;40.50;;;;;;491659;240;1091;-53
2020/12/27 06:52:21;;;;;;;;;;;19.70;40.50;;;;;;491687;240;1042;-53
2020/12/27 06:54:22;;;;;;;;;;;19.70;40.50;;;;;;491681;240;2161;-53
2020/12/27 06:56:23;;;;;;;;;;;19.70;40.50;;;;;;491556;240;1093;-53
2020/12/27 06:58:25;;;;;;;;;;;19.70;40.50;;;;;;491531;240;1073;-53
2020/12/27 07:00:26;;;;;;;;;;;19.70;40.40;;;;;;491569;240;1056;-53
2020/12/27 07:02:28;;;;;;;;;;;19.70;40.40;;;;;;491515;240;1027;-53
2020/12/27 07:04:28;;;;;;;;;;;19.80;40.40;;;;;;491534;242;2164;-53
2020/12/27 07:06:30;;;;;;;;;;;19.70;40.40;;;;;;491584;240;1035;-53
2020/12/27 07:08:31;;;;;;;;;;;19.70;40.40;;;;;;491659;240;1420;-53
2020/12/27 07:10:33;;;;;;;;;;;19.80;40.40;;;;;;491618;240;973;-53
2020/12/27 07:12:34;;;;;;;;;;;19.70;40.40;;;;;;491559;240;1084;-53
2020/12/27 07:14:35;;;;;;;;;;;19.80;40.40;;;;;;491733;240;2153;-53
2020/12/27 07:16:36;;;;;;;;;;;19.80;40.40;;;;;;491658;240;1000;-52
2020/12/27 07:18:38;;;;;;;;;;;19.80;40.40;;;;;;491554;240;1175;-53
2020/12/27 07:20:39;;;;;;;;;;;19.80;40.40;;;;;;491550;240;1039;-54
2020/12/27 07:22:40;;;;;;;;;;;19.70;40.30;;;;;;491656;240;1040;-53
2020/12/27 07:24:41;;;;;;;;;;;19.80;40.30;;;;;;491595;238;1178;-53
2020/12/27 07:26:43;;;;;;;;;;;19.70;40.30;;;;;;491491;240;1116;-53
2020/12/27 07:28:44;;;;;;;;;;;19.80;40.30;;;;;;491632;240;1263;-54
2020/12/27 07:30:45;;;;;;;;;;;19.80;40.30;;;;;;491536;240;1314;-53
2020/12/27 07:32:47;;;;;;;;;;;19.80;40.40;;;;;;491729;240;1216;-53
2020/12/27 07:34:48;;;;;;;;;;;19.80;40.30;;;;;;491684;240;2132;-53
2020/12/27 07:36:51;;;;;;;;;;;19.80;40.40;;;;;;491577;240;1269;-53
2020/12/27 07:38:51;;;;;;;;;;;19.80;40.30;;;;;;491636;242;2256;-53
2020/12/27 07:40:52;;;;;;;;;;;19.80;40.30;;;;;;491538;240;2243;-53
2020/12/27 07:42:53;;;;;;;;;;;19.80;40.30;;;;;;491619;240;1226;-53
2020/12/27 07:44:54;;;;;;;;;;;19.80;40.30;;;;;;491489;240;1182;-53
2020/12/27 07:46:56;;;;;;;;;;;19.80;40.20;;;;;;491469;240;1228;-53
2020/12/27 07:48:57;;;;;;;;;;;19.80;40.20;;;;;;491872;240;1283;-53
2020/12/27 07:50:58;;;;;;;;;;;19.80;40.20;;;;;;491585;240;1041;-53
2020/12/27 07:52:59;;;;;;;;;;;19.80;40.30;;;;;;491676;240;1120;-53
2020/12/27 07:55:01;;;;;;;;;;;19.80;40.20;;;;;;491546;240;2179;-52
2020/12/27 07:57:02;;;;;;;;;;;19.90;40.20;;;;;;491634;240;1079;-53
2020/12/27 07:59:03;;;;;;;;;;;19.80;40.10;;;;;;491631;240;1049;-53
2020/12/27 08:01:04;;;;;;;;;;;19.90;40.20;;;;;;491543;240;1129;-53
2020/12/27 08:03:06;;;;;;;;;;;19.80;40.10;;;;;;491578;240;1281;-53
2020/12/27 08:05:07;;;;;;;;;;;19.90;40.20;;;;;;491648;240;1353;-53
2020/12/27 08:07:09;;;;;;;;;;;19.80;38.80;;;;;;491515;240;1296;-53
2020/12/27 08:09:10;;;;;;;;;;;19.90;40.10;;;;;;491544;240;1147;-54
2020/12/27 08:11:11;;;;;;;;;;;19.90;40.20;;;;;;491606;240;1580;-53
2020/12/27 08:13:13;;;;;;;;;;;19.90;40.20;;;;;;491591;240;1201;-53
2020/12/27 08:15:14;;;;;;;;;;;19.90;40.20;;;;;;491664;240;2124;-53
2020/12/27 08:17:16;;;;;;;;;;;19.90;40.10;;;;;;491573;240;1199;-53
2020/12/27 08:19:18;;;;;;;;;;;19.90;40.10;;;;;;491594;240;1063;-53
2020/12/27 08:21:19;;;;;;;;;;;19.90;40.10;;;;;;491443;240;1077;-54
2020/12/27 08:23:20;;;;;;;;;;;19.90;40.10;;;;;;491480;240;1108;-53
2020/12/27 08:25:22;;;;;;;;;;;19.90;40.10;;;;;;491508;240;1215;-53
2020/12/27 08:27:23;;;;;;;;;;;19.90;40.10;;;;;;491531;240;1087;-53
2020/12/27 08:29:24;;;;;;;;;;;19.90;40.10;;;;;;491726;240;1036;-53
2020/12/27 08:31:26;;;;;;;;;;;19.90;40.10;;;;;;491652;240;984;-53
2020/12/27 08:33:27;;;;;;;;;;;19.90;40.00;;;;;;491602;240;1051;-53
2020/12/27 08:35:28;;;;;;;;;;;19.90;40.00;;;;;;491571;240;2191;-53
2020/12/27 08:37:29;;;;;;;;;;;19.90;40.00;;;;;;491619;240;1079;-53
2020/12/27 08:39:31;;;;;;;;;;;19.90;38.70;;;;;;491449;240;1338;-54
2020/12/27 08:41:32;;;;;;;;;;;19.90;40.10;;;;;;491617;240;1151;-53
2020/12/27 08:43:33;;;;;;;;;;;19.90;40.00;;;;;;491532;240;1056;-53
2020/12/27 08:45:35;;;;;;;;;;;19.90;40.00;;;;;;491512;240;1218;-53
2020/12/27 08:47:36;;;;;;;;;;;19.90;40.00;;;;;;491511;240;1057;-53
2020/12/27 08:49:37;;;;;;;;;;;19.90;40.00;;;;;;491611;240;1253;-54
2020/12/27 08:51:39;;;;;;;;;;;19.90;40.10;;;;;;491453;240;1181;-53
2020/12/27 08:53:40;;;;;;;;;;;19.90;40.00;;;;;;491541;240;1049;-53
2020/12/27 08:55:41;;;;;;;;;;;19.90;40.00;;;;;;491569;240;2188;-53
2020/12/27 08:57:43;;;;;;;;;;;19.90;40.00;;;;;;491662;240;1078;-53
2020/12/27 08:59:44;;;;;;;;;;;19.90;40.00;;;;;;491736;240;1396;-53
2020/12/27 09:01:45;;;;;;;;;;;19.90;40.00;;;;;;491489;240;1114;-53
2020/12/27 09:03:46;;;;;;;;;;;19.90;40.00;;;;;;491890;240;1054;-53
2020/12/27 09:05:48;;;;;;;;;;;19.90;40.00;;;;;;491729;240;1269;-53
2020/12/27 09:07:49;;;;;;;;;;;19.90;39.90;;;;;;491620;240;1094;-53
2020/12/27 09:09:50;;;;;;;;;;;19.90;40.00;;;;;;491840;240;1267;-53
2020/12/27 09:11:51;;;;;;;;;;;20.00;40.00;;;;;;491665;240;1170;-53
2020/12/27 09:13:54;;;;;;;;;;;19.90;40.00;;;;;;491597;240;1108;-53
2020/12/27 09:15:55;;;;;;;;;;;20.00;40.00;;;;;;491646;240;2120;-54
2020/12/27 09:17:57;;;;;;;;;;;20.00;40.00;;;;;;491638;240;955;-54
2020/12/27 09:19:58;;;;;;;;;;;19.90;39.90;;;;;;491609;240;978;-53
2020/12/27 09:21:59;;;;;;;;;;;20.00;39.90;;;;;;491719;240;1026;-52
2020/12/27 09:24:00;;;;;;;;;;;20.00;38.60;;;;;;491598;240;1047;-53
2020/12/27 09:26:02;;;;;;;;;;;20.00;39.90;;;;;;491456;240;1180;-53
2020/12/27 09:28:06;;;;;;;;;;;20.00;40.40;;;;;;491555;240;1044;-53
2020/12/27 09:30:04;;;;;;;;;;;20.00;40.20;;;;;;491616;241;1549;-53
2020/12/27 09:32:06;;;;;;;;;;;20.10;39.90;;;;;;491615;240;1063;-54
2020/12/27 09:34:07;;;;;;;;;;;20.00;39.80;;;;;;491569;240;1064;-53
2020/12/27 09:36:08;;;;;;;;;;;20.10;39.90;;;;;;491573;240;2199;-53
2020/12/27 09:38:09;;;;;;;;;;;20.00;40.00;;;;;;491512;240;1067;-53
2020/12/27 09:40:11;;;;;;;;;;;19.90;40.00;;;;;;491513;240;1716;-53
2020/12/27 09:42:12;;;;;;;;;;;19.90;40.20;;;;;;491607;240;1202;-53
2020/12/27 09:44:13;;;;;;;;;;;19.80;40.20;;;;;;491594;240;1074;-53
2020/12/27 09:46:14;;;;;;;;;;;19.80;40.30;;;;;;491530;240;1207;-53
2020/12/27 09:48:16;;;;;;;;;;;19.80;40.40;;;;;;491672;240;1016;-52
2020/12/27 09:50:17;;;;;;;;;;;19.70;39.30;;;;;;491717;240;1217;-53
2020/12/27 09:52:18;;;;;;;;;;;19.70;40.60;;;;;;491641;240;1183;-53
2020/12/27 09:54:19;;;;;;;;;;;19.60;40.70;;;;;;491615;240;1043;-53
2020/12/27 09:56:21;;;;;;;;;;;19.50;40.70;;;;;;491522;240;2183;-53
2020/12/27 09:58:23;;;;;;;;;;;19.50;40.80;;;;;;491507;240;1095;-53
2020/12/27 10:00:23;;;;;;;;;;;19.50;40.90;;;;;;491541;240;2453;-53
2020/12/27 10:02:25;;;;;;;;;;;19.50;40.90;;;;;;491500;240;1047;-52
2020/12/27 10:04:26;;;;;;;;;;;19.40;41.00;;;;;;491585;240;1130;-53
2020/12/27 10:06:27;;;;;;;;;;;19.40;41.00;;;;;;491515;240;1046;-53
2020/12/27 10:08:28;;;;;;;;;;;19.30;41.10;;;;;;491566;240;1047;-53
2020/12/27 10:10:30;;;;;;;;;;;19.30;41.10;;;;;;491497;240;1200;-53
2020/12/27 10:12:31;;;;;;;;;;;19.30;41.20;;;;;;491560;240;1067;-53
2020/12/27 10:14:32;;;;;;;;;;;19.30;41.20;;;;;;491628;240;1070;-53
2020/12/27 10:16:34;;;;;;;;;;;19.20;41.30;;;;;;491529;240;2121;-53
2020/12/27 10:18:35;;;;;;;;;;;19.20;41.30;;;;;;491460;240;1046;-53
2020/12/27 10:20:36;;;;;;;;;;;19.10;41.30;;;;;;491628;240;1071;-52
2020/12/27 10:22:38;;;;;;;;;;;19.10;41.40;;;;;;491700;240;1040;-52
2020/12/27 10:24:40;;;;;;;;;;;19.10;41.40;;;;;;491684;240;1013;-53
2020/12/27 10:26:40;;;;;;;;;;;19.10;41.50;;;;;;491651;241;2419;-52
2020/12/27 10:28:42;;;;;;;;;;;19.10;41.50;;;;;;491727;240;1076;-53
2020/12/27 10:30:43;;;;;;;;;;;19.00;41.50;;;;;;491632;240;1100;-53
2020/12/27 10:32:44;;;;;;;;;;;19.00;41.50;;;;;;491614;240;1117;-53
2020/12/27 10:34:45;;;;;;;;;;;19.00;41.60;;;;;;491827;240;1014;-53
2020/12/27 10:36:47;;;;;;;;;;;19.00;41.60;;;;;;491520;240;2192;-53
2020/12/27 10:38:48;;;;;;;;;;;19.00;41.60;;;;;;491533;240;960;-53
2020/12/27 10:40:49;;;;;;;;;;;19.00;41.60;;;;;;491657;240;1231;-53
2020/12/27 10:42:50;;;;;;;;;;;18.90;41.60;;;;;;491467;240;985;-53
2020/12/27 10:44:52;;;;;;;;;;;18.90;41.70;;;;;;491698;240;980;-53
2020/12/27 10:46:53;;;;;;;;;;;18.90;41.70;;;;;;491527;240;1064;-53
2020/12/27 10:48:54;;;;;;;;;;;18.90;41.70;;;;;;491561;240;1070;-53
2020/12/27 10:50:56;;;;;;;;;;;18.90;41.70;;;;;;491517;240;1066;-53
2020/12/27 10:52:57;;;;;;;;;;;18.80;40.40;;;;;;491509;240;1220;-53
2020/12/27 10:54:58;;;;;;;;;;;18.80;41.70;;;;;;491526;240;2204;-53
2020/12/27 10:56:59;;;;;;;;;;;18.80;41.70;;;;;;491436;240;1229;-53
2020/12/27 10:59:01;;;;;;;;;;;18.80;41.80;;;;;;491666;240;1100;-53
2020/12/27 11:01:02;;;;;;;;;;;18.80;41.80;;;;;;491545;240;992;-52
2020/12/27 11:03:03;;;;;;;;;;;18.80;41.80;;;;;;491582;240;1225;-53
2020/12/27 11:05:04;;;;;;;;;;;18.80;41.80;;;;;;491618;240;1077;-53
2020/12/27 11:07:06;;;;;;;;;;;18.70;41.80;;;;;;491588;240;1118;-53
2020/12/27 11:09:07;;;;;;;;;;;18.80;41.90;;;;;;491860;240;1116;-53
2020/12/27 11:11:08;;;;;;;;;;;18.70;41.80;;;;;;491592;240;1221;-53
2020/12/27 11:13:10;;;;;;;;;;;18.70;41.80;;;;;;491652;240;1099;-52
2020/12/27 11:15:11;;;;;;;;;;;18.70;41.80;;;;;;491755;240;2196;-53
2020/12/27 11:17:12;;;;;;;;;;;18.70;41.80;;;;;;491670;240;1186;-53
2020/12/27 11:19:13;;;;;;;;;;;18.70;41.80;;;;;;491848;240;1241;-53
2020/12/27 11:21:15;;;;;;;;;;;18.70;41.90;;;;;;491661;240;1171;-53
2020/12/27 11:23:16;;;;;;;;;;;18.70;41.90;;;;;;491705;240;1217;-53
2020/12/27 11:25:17;;;;;;;;;;;18.70;41.80;;;;;;491737;240;1219;-53
2020/12/27 11:27:19;;;;;;;;;;;18.70;41.90;;;;;;491671;240;1150;-53
2020/12/27 11:29:20;;;;;;;;;;;18.70;41.90;;;;;;491688;240;1262;-53
2020/12/27 11:31:21;;;;;;;;;;;18.70;41.90;;;;;;491674;240;1036;-53
2020/12/27 11:33:23;;;;;;;;;;;18.70;41.90;;;;;;491612;240;1152;-52
2020/12/27 11:35:24;;;;;;;;;;;18.60;41.80;;;;;;491571;240;2183;-53
2020/12/27 11:37:25;;;;;;;;;;;18.60;41.90;;;;;;491573;240;969;-53
2020/12/27 11:39:27;;;;;;;;;;;18.60;41.80;;;;;;491592;240;1275;-53
2020/12/27 11:41:28;;;;;;;;;;;18.60;41.90;;;;;;491405;240;2222;-53
2020/12/27 11:43:29;;;;;;;;;;;18.60;41.90;;;;;;491684;240;1103;-53
2020/12/27 11:45:30;;;;;;;;;;;18.60;41.90;;;;;;491536;240;1063;-53
2020/12/27 11:47:32;;;;;;;;;;;18.60;41.90;;;;;;491493;240;1329;-53
2020/12/27 11:49:33;;;;;;;;;;;18.60;41.90;;;;;;491568;240;1055;-53
2020/12/27 11:51:34;;;;;;;;;;;18.60;41.90;;;;;;491797;240;1040;-53
2020/12/27 11:53:35;;;;;;;;;;;18.50;41.90;;;;;;491548;240;1097;-53
2020/12/27 11:55:37;;;;;;;;;;;18.50;41.90;;;;;;491566;240;2144;-53
2020/12/27 11:57:38;;;;;;;;;;;18.50;41.90;;;;;;491659;240;1279;-53